createdAt,value
2023-04-01T00:01:48.710Z,61.09
2023-04-01T00:04:16.693Z,60.78
2023-04-01T00:06:43.645Z,60.90
2023-04-01T00:09:10.776Z,60.14
2023-04-01T00:11:37.850Z,60.25
2023-04-01T00:14:04.805Z,60.34
2023-04-01T00:16:32.083Z,60.40
2023-04-01T00:18:58.981Z,60.51
2023-04-01T00:21:26.126Z,60.30
2023-04-01T00:23:53.090Z,60.33
2023-04-01T00:26:22.339Z,60.31
2023-04-01T00:28:50.165Z,60.64
2023-04-01T00:31:17.228Z,61.26
2023-04-01T00:33:44.181Z,61.49
2023-04-01T00:36:17.517Z,61.71
2023-04-01T00:38:44.774Z,61.88
2023-04-01T00:41:15.429Z,61.60
2023-04-01T00:43:45.790Z,61.53
2023-04-01T00:46:13.193Z,62.03
2023-04-01T00:48:47.448Z,61.83
2023-04-01T00:51:23.324Z,62.07
2023-04-01T00:53:54.506Z,62.02
2023-04-01T00:56:27.870Z,61.87
2023-04-01T00:59:24.407Z,62.01
2023-04-01T01:01:52.061Z,61.91
2023-04-01T01:04:37.522Z,62.05
2023-04-01T01:07:33.405Z,61.87
2023-04-01T01:10:25.630Z,62.16
2023-04-01T01:13:26.348Z,61.98
2023-04-01T01:16:15.480Z,61.95
2023-04-01T01:18:55.144Z,62.08
2023-04-01T01:21:46.393Z,62.24
2023-04-01T01:24:47.673Z,62.43
2023-04-01T01:27:19.349Z,62.44
2023-04-01T01:30:07.440Z,62.66
2023-04-01T01:33:09.598Z,63.26
2023-04-01T01:35:53.486Z,63.78
2023-04-01T01:38:25.446Z,64.41
2023-04-01T01:41:00.497Z,64.49
2023-04-01T01:43:34.432Z,64.41
2023-04-01T01:46:08.657Z,64.58
2023-04-01T01:48:37.258Z,64.68
2023-04-01T01:51:07.313Z,64.96
2023-04-01T01:53:34.231Z,64.74
2023-04-01T01:56:01.693Z,64.50
2023-04-01T01:58:48.816Z,64.59
2023-04-01T02:01:25.785Z,64.36
2023-04-01T02:03:55.622Z,64.45
2023-04-01T02:06:30.574Z,64.94
2023-04-01T02:09:02.176Z,64.72
2023-04-01T02:11:36.155Z,64.75
2023-04-01T02:14:11.554Z,64.58
2023-04-01T02:16:46.406Z,64.34
2023-04-01T02:19:16.332Z,64.62
2023-04-01T02:21:44.162Z,64.69
2023-04-01T02:24:16.256Z,64.21
2023-04-01T02:26:44.064Z,64.36
2023-04-01T02:29:13.333Z,64.06
2023-04-01T02:31:41.403Z,63.87
2023-04-01T02:34:08.452Z,63.84
2023-04-01T02:36:37.319Z,63.91
2023-04-01T02:39:05.500Z,63.87
2023-04-01T02:41:32.595Z,63.90
2023-04-01T02:44:00.330Z,64.25
2023-04-01T02:46:27.280Z,64.11
2023-04-01T02:48:54.771Z,64.27
2023-04-01T02:51:21.737Z,64.28
2023-04-01T02:53:48.688Z,63.89
2023-04-01T02:56:15.888Z,64.00
2023-04-01T02:58:42.789Z,64.08
2023-04-01T03:01:09.956Z,64.17
2023-04-01T03:03:36.952Z,64.30
2023-04-01T03:06:11.881Z,64.40
2023-04-01T03:08:39.083Z,64.24
2023-04-01T03:11:06.874Z,64.54
2023-04-01T03:13:36.091Z,64.42
2023-04-01T03:16:03.516Z,64.42
2023-04-01T03:18:30.600Z,64.39
2023-04-01T03:20:58.195Z,64.72
2023-04-01T03:23:25.306Z,64.72
2023-04-01T03:25:52.224Z,64.71
2023-04-01T03:28:19.170Z,64.80
2023-04-01T03:30:46.311Z,64.69
2023-04-01T03:33:13.508Z,64.83
2023-04-01T03:35:40.410Z,64.74
2023-04-01T03:38:07.342Z,64.90
2023-04-01T03:40:38.180Z,65.18
2023-04-01T03:43:09.196Z,65.18
2023-04-01T03:45:45.108Z,65.04
2023-04-01T03:48:13.239Z,65.22
2023-04-01T03:50:40.291Z,65.19
2023-04-01T03:53:08.480Z,65.03
2023-04-01T03:55:40.606Z,64.70
2023-04-01T03:58:09.001Z,64.78
2023-04-01T04:00:36.011Z,64.69
2023-04-01T04:03:04.941Z,64.79
2023-04-01T04:05:35.112Z,65.02
2023-04-01T04:08:03.122Z,65.00
2023-04-01T04:10:30.251Z,65.03
2023-04-01T04:12:57.671Z,65.16
2023-04-01T04:15:26.384Z,65.25
2023-04-01T04:17:53.390Z,65.34
2023-04-01T04:20:20.576Z,65.67
2023-04-01T04:22:47.526Z,65.48
2023-04-01T04:25:14.519Z,65.73
2023-04-01T04:27:41.633Z,65.88
2023-04-01T04:30:13.034Z,65.73
2023-04-01T04:32:41.644Z,65.76
2023-04-01T04:35:09.206Z,65.92
2023-04-01T04:37:36.198Z,65.90
2023-04-01T04:40:03.180Z,65.92
2023-04-01T04:42:31.465Z,65.95
2023-04-01T04:45:04.778Z,65.59
2023-04-01T04:47:32.334Z,66.14
2023-04-01T04:49:59.304Z,66.06
2023-04-01T04:52:26.343Z,66.04
2023-04-01T04:54:53.452Z,66.10
2023-04-01T04:57:20.455Z,65.89
2023-04-01T04:59:54.159Z,66.21
2023-04-01T05:02:47.510Z,66.23
2023-04-01T05:05:14.518Z,66.31
2023-04-01T05:07:41.506Z,66.36
2023-04-01T05:10:08.980Z,66.13
2023-04-01T05:12:38.465Z,66.41
2023-04-01T05:15:08.167Z,66.50
2023-04-01T05:17:35.324Z,66.42
2023-04-01T05:20:04.296Z,66.73
2023-04-01T05:22:31.336Z,66.73
2023-04-01T05:24:58.237Z,66.86
2023-04-01T05:27:25.771Z,66.95
2023-04-01T05:29:52.773Z,67.07
2023-04-01T05:32:41.568Z,67.22
2023-04-01T05:35:08.831Z,67.13
2023-04-01T05:37:36.259Z,67.29
2023-04-01T05:40:05.790Z,67.14
2023-04-01T05:42:32.751Z,67.28
2023-04-01T05:44:59.662Z,67.34
2023-04-01T05:47:44.963Z,67.31
2023-04-01T05:50:12.548Z,67.32
2023-04-01T05:52:39.833Z,67.20
2023-04-01T05:55:07.546Z,66.97
2023-04-01T05:57:34.549Z,66.86
2023-04-01T06:00:01.673Z,67.12
2023-04-01T06:02:40.130Z,67.37
2023-04-01T06:05:30.499Z,67.46
2023-04-01T06:08:09.747Z,67.06
2023-04-01T06:11:06.027Z,67.22
2023-04-01T06:14:00.319Z,66.81
2023-04-01T06:17:08.767Z,67.02
2023-04-01T06:20:01.825Z,66.73
2023-04-01T06:22:53.982Z,66.79
2023-04-01T06:25:54.289Z,66.71
2023-04-01T06:28:50.915Z,66.85
2023-04-01T06:32:06.030Z,66.98
2023-04-01T06:35:12.237Z,66.59
2023-04-01T06:38:12.060Z,66.86
2023-04-01T06:41:26.638Z,67.12
2023-04-01T06:44:45.983Z,67.03
2023-04-01T06:47:56.013Z,67.17
2023-04-01T06:51:23.073Z,67.24
2023-04-01T06:54:31.331Z,67.15
2023-04-01T06:57:31.177Z,66.78
2023-04-01T07:00:02.378Z,67.04
2023-04-01T07:02:56.590Z,67.18
2023-04-01T07:05:24.981Z,67.14
2023-04-01T07:07:56.813Z,67.02
2023-04-01T07:10:45.509Z,66.92
2023-04-01T07:13:50.529Z,67.25
2023-04-01T07:16:39.277Z,67.46
2023-04-01T07:19:30.460Z,67.14
2023-04-01T07:22:28.282Z,66.86
2023-04-01T07:25:18.353Z,66.86
2023-04-01T07:28:20.203Z,66.95
2023-04-01T07:31:31.852Z,67.15
2023-04-01T07:34:24.241Z,67.18
2023-04-01T07:37:09.363Z,67.01
2023-04-01T07:40:07.449Z,67.04
2023-04-01T07:43:25.178Z,67.16
2023-04-01T07:46:24.868Z,67.23
2023-04-01T07:49:06.189Z,67.43
2023-04-01T07:52:04.501Z,67.21
2023-04-01T07:54:59.093Z,67.04
2023-04-01T07:57:51.115Z,67.14
2023-04-01T08:00:28.462Z,67.55
2023-04-01T08:03:26.630Z,67.50
2023-04-01T08:06:21.294Z,67.48
2023-04-01T08:09:14.243Z,67.72
2023-04-01T08:12:21.288Z,67.57
2023-04-01T08:15:39.533Z,67.43
2023-04-01T08:18:58.698Z,67.64
2023-04-01T08:21:33.780Z,67.73
2023-04-01T08:24:21.433Z,67.55
2023-04-01T08:26:55.261Z,67.47
2023-04-01T08:29:41.275Z,67.38
2023-04-01T08:32:17.519Z,67.31
2023-04-01T08:34:53.901Z,67.28
2023-04-01T08:37:36.481Z,67.27
2023-04-01T08:40:26.980Z,67.55
2023-04-01T08:43:42.465Z,67.77
2023-04-01T08:46:34.067Z,67.63
2023-04-01T08:49:46.336Z,68.20
2023-04-01T08:52:54.760Z,68.17
2023-04-01T08:55:57.189Z,68.16
2023-04-01T08:58:52.618Z,67.97
2023-04-01T09:01:53.845Z,68.01
2023-04-01T09:05:23.229Z,68.36
2023-04-01T09:08:22.689Z,68.25
2023-04-01T09:11:07.355Z,67.71
2023-04-01T09:15:08.071Z,67.27
2023-04-01T09:18:22.168Z,67.67
2023-04-01T09:21:32.407Z,67.87
2023-04-01T09:24:32.196Z,68.17
2023-04-01T09:27:29.461Z,67.87
2023-04-01T09:30:22.003Z,68.35
2023-04-01T09:33:28.862Z,68.42
2023-04-01T09:36:46.031Z,68.72
2023-04-01T09:39:43.667Z,68.59
2023-04-01T09:42:53.398Z,68.51
2023-04-01T09:46:08.165Z,68.26
2023-04-01T09:48:52.978Z,68.06
2023-04-01T09:51:55.707Z,68.08
2023-04-01T09:54:59.398Z,67.82
2023-04-01T09:58:06.325Z,67.73
2023-04-01T10:01:35.336Z,67.56
2023-04-01T10:04:40.708Z,67.84
2023-04-01T10:07:49.300Z,67.55
2023-04-01T10:11:13.359Z,67.23
2023-04-01T10:14:22.131Z,67.25
2023-04-01T10:17:39.324Z,66.86
2023-04-01T10:20:28.848Z,66.61
2023-04-01T10:23:53.012Z,66.71
2023-04-01T10:27:02.715Z,66.36
2023-04-01T10:30:23.544Z,66.50
2023-04-01T10:33:26.697Z,66.43
2023-04-01T10:36:20.410Z,66.49
2023-04-01T10:39:27.594Z,66.04
2023-04-01T10:42:25.267Z,66.29
2023-04-01T10:45:58.816Z,66.40
2023-04-01T10:49:01.893Z,66.23
2023-04-01T10:51:55.166Z,66.36
2023-04-01T10:55:11.870Z,65.93
2023-04-01T10:59:11.895Z,65.75
2023-04-01T11:02:51.778Z,65.65
2023-04-01T11:05:57.521Z,65.48
2023-04-01T11:08:57.232Z,65.39
2023-04-01T11:12:03.443Z,65.51
2023-04-01T11:15:16.818Z,65.42
2023-04-01T11:18:03.623Z,65.43
2023-04-01T11:20:51.313Z,65.60
2023-04-01T11:24:04.978Z,65.70
2023-04-01T11:27:14.209Z,66.03
2023-04-01T11:30:17.482Z,66.05
2023-04-01T11:33:08.701Z,66.00
2023-04-01T11:35:56.872Z,65.83
2023-04-01T11:38:45.592Z,65.86
2023-04-01T11:41:52.021Z,65.94
2023-04-01T11:44:46.696Z,66.22
2023-04-01T11:47:58.954Z,65.97
2023-04-01T11:51:00.042Z,65.99
2023-04-01T11:54:18.626Z,65.68
2023-04-01T11:57:06.824Z,65.48
2023-04-01T12:00:01.751Z,65.19
2023-04-01T12:03:03.254Z,65.65
2023-04-01T12:05:40.664Z,65.68
2023-04-01T12:08:38.137Z,65.69
2023-04-01T12:11:16.711Z,65.57
2023-04-01T12:13:56.995Z,65.57
2023-04-01T12:16:48.155Z,65.91
2023-04-01T12:19:46.037Z,65.86
2023-04-01T12:22:50.903Z,65.70
2023-04-01T12:26:23.245Z,66.06
2023-04-01T12:29:20.785Z,65.93
2023-04-01T12:32:01.857Z,66.00
2023-04-01T12:34:50.913Z,65.40
2023-04-01T12:37:30.621Z,65.04
2023-04-01T12:40:38.805Z,65.05
2023-04-01T12:43:44.416Z,65.10
2023-04-01T12:46:51.665Z,65.13
2023-04-01T12:49:51.894Z,64.88
2023-04-01T12:53:10.487Z,64.54
2023-04-01T12:55:45.762Z,64.29
2023-04-01T12:58:35.218Z,64.81
2023-04-01T13:01:35.540Z,65.12
2023-04-01T13:04:31.531Z,64.96
2023-04-01T13:07:34.114Z,65.57
2023-04-01T13:10:44.127Z,65.65
2023-04-01T13:14:21.618Z,65.50
2023-04-01T13:17:30.845Z,65.77
2023-04-01T13:20:54.496Z,65.96
2023-04-01T13:24:08.732Z,66.13
2023-04-01T13:26:56.018Z,66.01
2023-04-01T13:30:03.908Z,65.69
2023-04-01T13:32:57.423Z,65.07
2023-04-01T13:36:04.231Z,64.98
2023-04-01T13:38:54.788Z,65.33
2023-04-01T13:41:44.724Z,65.57
2023-04-01T13:44:25.739Z,65.02
2023-04-01T13:47:21.272Z,64.63
2023-04-01T13:50:24.915Z,64.56
2023-04-01T13:53:52.493Z,64.25
2023-04-01T13:56:49.448Z,64.70
2023-04-01T13:59:39.459Z,63.95
2023-04-01T14:02:42.222Z,63.74
2023-04-01T14:05:29.402Z,63.86
2023-04-01T14:08:37.375Z,63.52
2023-04-01T14:11:42.592Z,63.71
2023-04-01T14:14:46.998Z,63.48
2023-04-01T14:17:49.110Z,63.73
2023-04-01T14:20:41.287Z,63.56
2023-04-01T14:23:32.674Z,63.53
2023-04-01T14:26:19.078Z,63.17
2023-04-01T14:29:09.050Z,62.96
2023-04-01T14:32:03.514Z,62.98
2023-04-01T14:35:11.621Z,62.86
2023-04-01T14:38:15.644Z,62.87
2023-04-01T14:41:22.159Z,62.64
2023-04-01T14:44:24.036Z,62.33
2023-04-01T14:47:30.019Z,61.68
2023-04-01T14:50:25.505Z,61.97
2023-04-01T14:53:27.882Z,62.21
2023-04-01T14:56:00.938Z,62.26
2023-04-01T14:58:58.568Z,62.00
2023-04-01T15:01:53.602Z,61.99
2023-04-01T15:04:38.089Z,61.84
2023-04-01T15:07:52.066Z,62.04
2023-04-01T15:10:43.532Z,61.87
2023-04-01T15:13:31.292Z,61.66
2023-04-01T15:16:16.463Z,61.58
2023-04-01T15:19:18.676Z,61.61
2023-04-01T15:21:56.676Z,61.69
2023-04-01T15:25:31.214Z,61.76
2023-04-01T15:28:32.019Z,61.45
2023-04-01T15:31:31.022Z,61.38
2023-04-01T15:34:32.630Z,61.45
2023-04-01T15:37:37.177Z,61.38
2023-04-01T15:41:02.707Z,61.24
2023-04-01T15:43:49.685Z,60.85
2023-04-01T15:46:37.606Z,60.50
2023-04-01T15:49:42.978Z,60.55
2023-04-01T15:52:24.070Z,60.61
2023-04-01T15:55:07.510Z,60.58
2023-04-01T15:57:48.328Z,60.82
2023-04-01T16:00:31.915Z,60.96
2023-04-01T16:03:39.128Z,60.60
2023-04-01T16:07:03.253Z,60.68
2023-04-01T16:09:39.064Z,60.65
2023-04-01T16:12:20.913Z,60.75
2023-04-01T16:15:20.511Z,60.62
2023-04-01T16:18:02.827Z,60.64
2023-04-01T16:20:59.038Z,60.64
2023-04-01T16:24:21.083Z,60.11
2023-04-01T16:27:19.982Z,59.86
2023-04-01T16:29:54.447Z,59.57
2023-04-01T16:33:10.900Z,59.28
2023-04-01T16:35:48.787Z,59.57
2023-04-01T16:38:34.088Z,59.29
2023-04-01T16:41:04.081Z,59.31
2023-04-01T16:43:59.007Z,59.06
2023-04-01T16:46:37.633Z,59.52
2023-04-01T16:49:11.641Z,59.44
2023-04-01T16:52:11.885Z,59.59
2023-04-01T16:55:04.776Z,59.47
2023-04-01T16:57:57.211Z,59.49
2023-04-01T17:00:39.328Z,59.31
2023-04-01T17:03:09.243Z,59.23
2023-04-01T17:06:10.685Z,59.25
2023-04-01T17:09:09.045Z,59.10
2023-04-01T17:12:07.988Z,59.04
2023-04-01T17:15:03.243Z,59.20
2023-04-01T17:17:46.949Z,59.32
2023-04-01T17:20:43.265Z,58.96
2023-04-01T17:23:32.662Z,59.06
2023-04-01T17:26:38.586Z,59.29
2023-04-01T17:29:34.941Z,59.12
2023-04-01T17:32:21.265Z,59.26
2023-04-01T17:35:08.715Z,59.13
2023-04-01T17:38:21.403Z,58.52
2023-04-01T17:41:26.103Z,58.76
2023-04-01T17:44:08.194Z,59.13
2023-04-01T17:46:45.395Z,59.01
2023-04-01T17:49:35.489Z,58.88
2023-04-01T17:52:25.829Z,58.99
2023-04-01T17:55:14.033Z,58.77
2023-04-01T17:58:17.893Z,58.31
2023-04-01T18:01:07.394Z,58.40
2023-04-01T18:04:14.117Z,58.03
2023-04-01T18:07:01.073Z,58.29
2023-04-01T18:09:48.207Z,58.22
2023-04-01T18:12:31.984Z,57.91
2023-04-01T18:15:47.187Z,58.26
2023-04-01T18:18:48.338Z,57.96
2023-04-01T18:21:56.718Z,57.86
2023-04-01T18:24:41.375Z,57.60
2023-04-01T18:27:25.464Z,57.48
2023-04-01T18:30:14.371Z,57.89
2023-04-01T18:33:08.595Z,57.47
2023-04-01T18:36:11.679Z,57.15
2023-04-01T18:38:47.312Z,57.38
2023-04-01T18:41:17.096Z,57.00
2023-04-01T18:44:16.819Z,57.50
2023-04-01T18:47:30.415Z,57.38
2023-04-01T18:50:29.620Z,57.29
2023-04-01T18:53:32.619Z,56.88
2023-04-01T18:56:04.816Z,57.00
2023-04-01T18:58:57.039Z,56.86
2023-04-01T19:01:47.475Z,56.41
2023-04-01T19:04:34.990Z,56.47
2023-04-01T19:07:37.305Z,56.48
2023-04-01T19:10:27.153Z,56.38
2023-04-01T19:13:19.228Z,56.57
2023-04-01T19:16:17.956Z,56.54
2023-04-01T19:19:09.431Z,56.67
2023-04-01T19:21:57.831Z,56.59
2023-04-01T19:25:23.902Z,55.89
2023-04-01T19:28:17.708Z,55.26
2023-04-01T19:31:02.623Z,55.43
2023-04-01T19:33:37.948Z,55.74
2023-04-01T19:36:12.604Z,55.71
2023-04-01T19:39:20.938Z,55.53
2023-04-01T19:42:42.613Z,55.83
2023-04-01T19:45:43.283Z,55.77
2023-04-01T19:48:21.743Z,55.45
2023-04-01T19:50:57.381Z,55.83
2023-04-01T19:53:55.589Z,55.64
2023-04-01T19:56:24.740Z,55.48
2023-04-01T19:59:18.861Z,55.42
2023-04-01T20:02:12.124Z,55.54
2023-04-01T20:04:48.675Z,55.36
2023-04-01T20:07:33.009Z,54.95
2023-04-01T20:10:18.880Z,54.93
2023-04-01T20:13:42.769Z,54.85
2023-04-01T20:16:11.833Z,54.73
2023-04-01T20:19:00.128Z,55.14
2023-04-01T20:21:47.151Z,55.08
2023-04-01T20:24:33.138Z,55.08
2023-04-01T20:27:18.494Z,55.10
2023-04-01T20:30:05.322Z,55.09
2023-04-01T20:32:50.691Z,54.85
2023-04-01T20:35:36.270Z,54.82
2023-04-01T20:38:52.516Z,54.59
2023-04-01T20:41:28.416Z,54.97
2023-04-01T20:44:10.206Z,54.69
2023-04-01T20:47:17.967Z,54.92
2023-04-01T20:50:22.741Z,55.26
2023-04-01T20:53:13.227Z,55.14
2023-04-01T20:56:14.662Z,55.05
2023-04-01T20:59:12.705Z,54.47
2023-04-01T21:02:09.632Z,55.05
2023-04-01T21:05:28.164Z,55.16
2023-04-01T21:08:30.087Z,54.53
2023-04-01T21:11:19.689Z,55.11
2023-04-01T21:14:26.239Z,55.17
2023-04-01T21:17:35.464Z,54.66
2023-04-01T21:20:52.974Z,54.58
2023-04-01T21:23:40.392Z,55.19
2023-04-01T21:26:44.436Z,54.86
2023-04-01T21:29:34.733Z,53.93
2023-04-01T21:32:21.643Z,54.52
2023-04-01T21:35:17.685Z,54.35
2023-04-01T21:38:12.016Z,53.99
2023-04-01T21:41:10.939Z,54.02
2023-04-01T21:44:07.606Z,54.49
2023-04-01T21:47:26.570Z,53.71
2023-04-01T21:50:24.089Z,53.86
2023-04-01T21:53:19.626Z,53.81
2023-04-01T21:56:14.783Z,53.84
2023-04-01T21:59:11.287Z,53.28
2023-04-01T22:02:06.953Z,53.44
2023-04-01T22:04:59.673Z,53.23
2023-04-01T22:07:40.447Z,53.18
2023-04-01T22:10:47.992Z,53.64
2023-04-01T22:13:29.378Z,53.54
2023-04-01T22:17:04.478Z,53.57
2023-04-01T22:20:10.272Z,53.54
2023-04-01T22:23:07.939Z,53.74
2023-04-01T22:25:58.742Z,53.65
2023-04-01T22:29:06.649Z,53.92
2023-04-01T22:31:52.328Z,53.79
2023-04-01T22:34:43.648Z,54.03
2023-04-01T22:37:46.311Z,53.48
2023-04-01T22:40:38.033Z,53.39
2023-04-01T22:43:13.606Z,53.16
2023-04-01T22:45:58.132Z,53.10
2023-04-01T22:48:39.388Z,53.54
2023-04-01T22:51:19.342Z,52.90
2023-04-01T22:54:23.106Z,53.30
2023-04-01T22:57:00.713Z,52.81
2023-04-01T23:00:09.403Z,52.93
2023-04-01T23:03:22.829Z,52.77
2023-04-01T23:05:58.789Z,53.02
2023-04-01T23:09:02.212Z,53.51
2023-04-01T23:12:04.989Z,53.65
2023-04-01T23:14:54.830Z,53.62
2023-04-01T23:17:54.616Z,53.44
2023-04-01T23:20:29.698Z,53.41
2023-04-01T23:23:36.995Z,53.70
2023-04-01T23:26:41.664Z,53.22
2023-04-01T23:29:16.295Z,53.23
2023-04-01T23:31:47.787Z,53.24
2023-04-01T23:34:14.625Z,52.91
2023-04-01T23:36:55.072Z,53.12
2023-04-01T23:39:55.748Z,53.06
2023-04-01T23:42:41.428Z,53.38
2023-04-01T23:45:18.280Z,53.24
2023-04-01T23:47:47.966Z,53.66
2023-04-01T23:50:25.350Z,53.90
2023-04-01T23:53:19.731Z,53.27
2023-04-01T23:55:47.720Z,53.38
2023-04-01T23:58:44.101Z,53.16
